Time;durP1;ratioP1;P1;durP2;ratioP2;P2;SDS_P1;SDS_P2;PMS_P1;PMS_P2;Temp;Humidity;BMP_temperature;BMP_pressure;BME280_temperature;BME280_humidity;BME280_pressure;Samples;Min_cycle;Max_cycle;Signal;HPM_P1;HPM_P2
2021/07/17 00:00:18;;;;;;;15.70;4.63;;;16.60;99.90;;;;;;5013574;28;20112;-82
2021/07/17 00:02:44;;;;;;;15.68;4.45;;;16.60;99.90;;;;;;5013528;28;20046;-82
2021/07/17 00:05:13;;;;;;;14.48;4.68;;;16.60;99.90;;;;;;5028376;28;20490;-82
2021/07/17 00:07:40;;;;;;;10.02;3.83;;;16.40;99.90;;;;;;5013414;28;20030;-82
2021/07/17 00:10:10;;;;;;;18.73;3.42;;;16.40;99.90;;;;;;5013361;28;20022;-83
2021/07/17 00:12:35;;;;;;;16.50;4.90;;;16.30;99.90;;;;;;5013214;28;20030;-82
2021/07/17 00:15:01;;;;;;;17.25;5.03;;;16.30;99.90;;;;;;5012039;28;20026;-82
2021/07/17 00:17:27;;;;;;;16.80;4.85;;;16.20;99.90;;;;;;5013229;28;20100;-82
2021/07/17 00:19:52;;;;;;;15.90;4.97;;;16.10;99.90;;;;;;5013146;28;20032;-82
2021/07/17 00:22:18;;;;;;;17.75;4.47;;;16.00;99.90;;;;;;5011837;28;20030;-81
2021/07/17 00:24:43;;;;;;;14.00;3.92;;;16.00;99.90;;;;;;5013012;28;20030;-82
2021/07/17 00:27:09;;;;;;;11.50;3.63;;;16.10;99.90;;;;;;5013181;28;20496;-81
2021/07/17 00:29:34;;;;;;;16.95;4.75;;;15.90;99.90;;;;;;5008624;28;20057;-82
2021/07/17 00:32:00;;;;;;;33.60;5.03;;;15.90;99.90;;;;;;4993277;28;20483;-81
2021/07/17 00:34:25;;;;;;;11.52;3.58;;;15.80;99.90;;;;;;4993336;28;20399;-82
2021/07/17 00:36:52;;;;;;;10.10;3.70;;;15.80;99.90;;;;;;4993340;28;20449;-81
2021/07/17 00:39:18;;;;;;;17.67;3.80;;;15.80;99.90;;;;;;4993195;28;20364;-82
2021/07/17 00:41:43;;;;;;;15.50;4.18;;;15.80;99.90;;;;;;4993060;28;20029;-81
2021/07/17 00:44:09;;;;;;;12.70;3.78;;;15.80;99.90;;;;;;4993274;28;20068;-82
2021/07/17 00:46:35;;;;;;;16.63;4.38;;;15.70;99.90;;;;;;4993174;28;20018;-81
2021/07/17 00:49:01;;;;;;;15.00;4.40;;;15.80;99.90;;;;;;4993130;28;20534;-82
2021/07/17 00:51:26;;;;;;;21.88;4.25;;;15.70;99.90;;;;;;4992917;28;20034;-81
2021/07/17 00:53:52;;;;;;;16.02;4.40;;;15.80;99.90;;;;;;4992985;28;20126;-81
2021/07/17 00:56:19;;;;;;;18.60;4.65;;;15.80;99.90;;;;;;4992924;28;20034;-82
2021/07/17 00:58:48;;;;;;;22.33;4.63;;;15.70;99.90;;;;;;4992148;28;20034;-83
2021/07/17 01:01:15;;;;;;;14.27;4.47;;;15.60;99.90;;;;;;4992842;28;20382;-82
2021/07/17 01:03:42;;;;;;;23.60;4.47;;;15.60;99.90;;;;;;4991633;28;20018;-82
2021/07/17 01:06:08;;;;;;;20.30;6.10;;;15.50;99.90;;;;;;4992780;28;20372;-82
2021/07/17 01:08:35;;;;;;;18.67;5.63;;;15.60;99.90;;;;;;4992865;28;20028;-81
2021/07/17 01:11:01;;;;;;;22.95;5.60;;;15.60;99.90;;;;;;4992492;28;20030;-82
2021/07/17 01:13:26;;;;;;;19.20;5.20;;;15.60;99.90;;;;;;4992740;28;20156;-82
2021/07/17 01:15:52;;;;;;;19.95;4.70;;;15.60;99.90;;;;;;4991404;28;20018;-82
2021/07/17 01:18:18;;;;;;;23.13;5.57;;;15.60;99.90;;;;;;4992570;28;20463;-81
2021/07/17 01:20:45;;;;;;;15.55;4.57;;;15.50;99.90;;;;;;4992688;28;20112;-82
2021/07/17 01:23:11;;;;;;;23.52;5.53;;;15.60;99.90;;;;;;5007512;28;20026;-82
2021/07/17 01:25:36;;;;;;;35.72;5.35;;;15.50;99.90;;;;;;4992459;28;20023;-81
2021/07/17 01:28:03;;;;;;;19.98;4.93;;;15.50;99.90;;;;;;5007657;28;20022;-82
2021/07/17 01:30:34;;;;;;;26.65;7.18;;;15.40;99.90;;;;;;4992537;28;20383;-82
2021/07/17 01:33:00;;;;;;;30.33;5.72;;;15.40;99.90;;;;;;5007374;28;20026;-82
2021/07/17 01:35:26;;;;;;;26.08;6.13;;;15.40;99.90;;;;;;4992440;28;20034;-81
2021/07/17 01:37:52;;;;;;;16.05;4.75;;;15.40;99.90;;;;;;4992487;28;20509;-82
2021/07/17 01:40:21;;;;;;;20.67;6.03;;;15.30;99.90;;;;;;4992312;28;20479;-80
2021/07/17 01:42:49;;;;;;;24.75;5.35;;;15.30;99.90;;;;;;4992180;28;20493;-81
2021/07/17 01:45:24;;;;;;;30.08;5.90;;;15.20;99.90;;;;;;4991325;28;20033;-81
2021/07/17 01:47:50;;;;;;;22.33;5.25;;;15.20;99.90;;;;;;4991105;28;20022;-81
2021/07/17 01:50:16;;;;;;;27.80;6.60;;;15.20;99.90;;;;;;4992372;28;20034;-81
2021/07/17 01:52:42;;;;;;;19.95;4.78;;;15.10;99.90;;;;;;4992044;28;20030;-82
2021/07/17 01:55:08;;;;;;;23.70;5.68;;;15.10;99.90;;;;;;4992327;28;20033;-82
2021/07/17 01:57:34;;;;;;;21.25;6.10;;;15.00;99.90;;;;;;5007412;28;20030;-82
2021/07/17 01:59:59;;;;;;;27.10;5.43;;;15.10;99.90;;;;;;4992210;28;20092;-81
2021/07/17 02:02:25;;;;;;;26.13;6.95;;;15.00;99.90;;;;;;4992042;28;20094;-80
2021/07/17 02:04:50;;;;;;;19.88;5.28;;;14.90;99.90;;;;;;4992174;28;20470;-81
2021/07/17 02:07:16;;;;;;;26.80;5.30;;;14.90;99.90;;;;;;4992115;28;20037;-81
2021/07/17 02:09:41;;;;;;;24.15;6.20;;;14.80;99.90;;;;;;4992242;28;20027;-81
2021/07/17 02:12:07;;;;;;;16.15;4.68;;;14.70;99.90;;;;;;4995820;28;20036;-81
2021/07/17 02:14:52;;;;;;;21.58;5.93;;;14.60;99.90;;;;;;4995977;28;20117;-80
2021/07/17 02:17:19;;;;;;;21.50;5.70;;;14.50;99.90;;;;;;4995985;28;20110;-81
2021/07/17 02:19:44;;;;;;;34.30;6.22;;;14.40;99.90;;;;;;4995724;28;20101;-81
2021/07/17 02:22:11;;;;;;;19.75;5.55;;;14.30;99.90;;;;;;4995583;28;20117;-81
2021/07/17 02:24:36;;;;;;;17.73;4.85;;;14.20;99.90;;;;;;4995784;28;20023;-81
2021/07/17 02:27:02;;;;;;;17.20;4.88;;;14.20;99.90;;;;;;4995786;28;20029;-81
2021/07/17 02:29:28;;;;;;;18.73;5.47;;;14.10;99.90;;;;;;4998027;28;20033;-81
2021/07/17 02:31:54;;;;;;;21.48;4.72;;;14.10;99.90;;;;;;5013783;28;20022;-81
2021/07/17 02:34:19;;;;;;;19.85;5.25;;;14.10;99.90;;;;;;5015064;28;20033;-81
2021/07/17 02:36:45;;;;;;;23.52;6.65;;;14.10;99.90;;;;;;5015206;28;20036;-80
2021/07/17 02:39:11;;;;;;;16.40;5.25;;;14.10;99.90;;;;;;5015169;28;20142;-80
2021/07/17 02:41:37;;;;;;;19.95;5.63;;;14.00;99.90;;;;;;5014922;28;20101;-81
2021/07/17 02:44:03;;;;;;;16.05;4.78;;;14.00;99.90;;;;;;5015121;28;20025;-82
2021/07/17 02:46:28;;;;;;;11.32;4.28;;;14.00;99.90;;;;;;5014912;28;20121;-81
2021/07/17 02:48:54;;;;;;;17.23;4.70;;;13.90;99.90;;;;;;5014888;28;20061;-81
2021/07/17 02:51:20;;;;;;;25.65;5.35;;;13.90;99.90;;;;;;5029976;28;20034;-81
2021/07/17 02:53:45;;;;;;;17.42;6.07;;;13.90;99.90;;;;;;5014981;28;20033;-81
2021/07/17 02:56:11;;;;;;;30.75;6.55;;;13.90;99.90;;;;;;5014768;28;20026;-81
2021/07/17 02:58:37;;;;;;;13.75;5.22;;;13.90;99.90;;;;;;5014778;28;20030;-81
2021/07/17 03:01:02;;;;;;;14.68;4.93;;;13.90;99.90;;;;;;5029964;28;20470;-81
2021/07/17 03:03:28;;;;;;;38.80;6.90;;;13.90;99.90;;;;;;5014563;28;20129;-81
2021/07/17 03:05:55;;;;;;;29.98;7.40;;;14.00;99.90;;;;;;5014628;28;20029;-81
2021/07/17 03:08:23;;;;;;;45.92;6.05;;;14.20;99.90;;;;;;5014316;28;20064;-81
2021/07/17 03:10:53;;;;;;;35.70;5.90;;;14.30;99.90;;;;;;5014567;28;20060;-81
2021/07/17 03:13:19;;;;;;;32.33;6.55;;;14.30;99.90;;;;;;5014452;28;20073;-81
2021/07/17 03:15:48;;;;;;;32.08;6.10;;;14.40;99.90;;;;;;5014518;28;20022;-80
2021/07/17 03:18:13;;;;;;;34.05;7.22;;;14.30;99.90;;;;;;5012969;28;20042;-81
2021/07/17 03:20:39;;;;;;;33.17;6.07;;;14.30;99.90;;;;;;5013090;28;20030;-81
2021/07/17 03:23:05;;;;;;;20.60;6.88;;;14.30;99.90;;;;;;5013143;28;20041;-81
2021/07/17 03:25:31;;;;;;;15.43;5.00;;;14.30;99.90;;;;;;5014394;28;20101;-81
2021/07/17 03:27:57;;;;;;;23.92;9.05;;;14.30;99.90;;;;;;5014258;28;20057;-81
2021/07/17 03:30:23;;;;;;;34.50;10.00;;;14.30;99.90;;;;;;5004430;28;20439;-81
2021/07/17 03:32:49;;;;;;;25.52;8.55;;;14.30;99.90;;;;;;4994392;28;20066;-81
2021/07/17 03:35:14;;;;;;;23.20;6.57;;;14.50;99.90;;;;;;4994478;28;20022;-81
2021/07/17 03:37:40;;;;;;;26.42;5.63;;;14.40;99.90;;;;;;4994511;28;20054;-81
2021/07/17 03:40:06;;;;;;;27.08;6.20;;;14.50;99.90;;;;;;4994400;28;20034;-81
2021/07/17 03:42:32;;;;;;;26.95;8.27;;;14.50;99.90;;;;;;4994223;28;20026;-81
2021/07/17 03:44:58;;;;;;;22.42;7.07;;;14.40;99.90;;;;;;4992993;28;20502;-80
2021/07/17 03:47:24;;;;;;;21.92;7.10;;;14.40;99.90;;;;;;4994348;28;20034;-81
2021/07/17 03:49:49;;;;;;;19.55;6.55;;;14.40;99.90;;;;;;5009379;28;20031;-81
2021/07/17 03:52:16;;;;;;;18.92;7.05;;;14.40;99.90;;;;;;4994105;28;20026;-81
2021/07/17 03:54:41;;;;;;;27.30;6.05;;;14.30;99.90;;;;;;4994167;28;20479;-81
2021/07/17 03:57:07;;;;;;;16.35;5.90;;;14.40;99.90;;;;;;4994186;28;20039;-81
2021/07/17 03:59:33;;;;;;;23.65;5.50;;;14.40;99.90;;;;;;4994042;28;20026;-82
2021/07/17 04:01:58;;;;;;;22.92;6.45;;;14.50;99.90;;;;;;4993863;28;20434;-80
2021/07/17 04:04:24;;;;;;;22.95;7.13;;;14.60;99.90;;;;;;4993940;28;20093;-81
2021/07/17 04:06:50;;;;;;;26.00;7.20;;;14.80;99.90;;;;;;4994073;28;20026;-81
2021/07/17 04:09:15;;;;;;;26.17;6.68;;;14.80;99.90;;;;;;4993996;28;20027;-81
2021/07/17 04:11:41;;;;;;;28.92;5.97;;;14.90;99.90;;;;;;4993680;28;20526;-81
2021/07/17 04:14:07;;;;;;;24.73;6.15;;;15.00;99.90;;;;;;5008912;28;20099;-81
2021/07/17 04:16:32;;;;;;;21.23;6.57;;;15.00;99.90;;;;;;4993797;28;20026;-81
2021/07/17 04:18:58;;;;;;;31.05;6.68;;;15.10;99.90;;;;;;5008775;28;20034;-81
2021/07/17 04:21:23;;;;;;;26.95;8.93;;;15.10;99.90;;;;;;4993348;28;20041;-81
2021/07/17 04:23:49;;;;;;;27.98;6.93;;;15.20;99.90;;;;;;5008703;28;20049;-81
2021/07/17 04:26:15;;;;;;;34.22;6.45;;;15.40;99.90;;;;;;4993513;28;20022;-81
2021/07/17 04:28:40;;;;;;;29.35;9.50;;;15.50;99.90;;;;;;4993551;28;20053;-81
2021/07/17 04:31:06;;;;;;;29.83;8.43;;;15.50;99.90;;;;;;4993455;28;20084;-82
2021/07/17 04:33:32;;;;;;;30.55;6.50;;;15.60;99.90;;;;;;4993184;28;20022;-81
2021/07/17 04:35:58;;;;;;;39.63;9.02;;;15.70;99.90;;;;;;5008432;28;20022;-82
2021/07/17 04:38:23;;;;;;;23.13;5.80;;;15.80;99.90;;;;;;4993331;28;20030;-81
2021/07/17 04:40:49;;;;;;;24.50;5.63;;;15.90;99.90;;;;;;4993342;28;20022;-82
2021/07/17 04:43:14;;;;;;;37.85;7.30;;;16.00;99.90;;;;;;4993047;28;20026;-82
2021/07/17 04:45:40;;;;;;;39.75;7.20;;;16.10;99.90;;;;;;4993211;28;20030;-81
2021/07/17 04:48:06;;;;;;;28.20;5.90;;;16.20;99.90;;;;;;4993164;28;20033;-82
2021/07/17 04:50:33;;;;;;;44.72;7.05;;;16.30;99.90;;;;;;4993150;28;20030;-81
2021/07/17 04:52:58;;;;;;;30.42;6.07;;;16.40;99.90;;;;;;5008032;28;20121;-81
2021/07/17 04:55:25;;;;;;;17.77;5.25;;;16.30;99.90;;;;;;4993075;28;20062;-82
2021/07/17 04:57:51;;;;;;;27.35;5.68;;;16.50;99.90;;;;;;4993073;28;20475;-81
2021/07/17 05:00:17;;;;;;;29.58;6.22;;;16.70;99.90;;;;;;4992930;28;20034;-81
2021/07/17 05:02:48;;;;;;;27.65;5.93;;;16.80;99.90;;;;;;4992782;28;20080;-82
2021/07/17 05:05:15;;;;;;;41.13;6.15;;;16.80;99.90;;;;;;4992859;28;20026;-83
2021/07/17 05:07:41;;;;;;;34.67;6.72;;;16.90;99.90;;;;;;4992934;28;20014;-82
2021/07/17 05:10:07;;;;;;;23.98;5.57;;;17.00;99.90;;;;;;4992867;28;20089;-82
2021/07/17 05:12:32;;;;;;;22.20;4.07;;;17.10;99.90;;;;;;4992547;28;20453;-82
2021/07/17 05:14:58;;;;;;;37.38;5.10;;;17.20;99.90;;;;;;4992657;28;20053;-82
2021/07/17 05:17:23;;;;;;;25.20;5.72;;;17.30;99.90;;;;;;4992862;28;20454;-81
2021/07/17 05:19:49;;;;;;;23.02;3.78;;;17.40;99.90;;;;;;5007796;28;20498;-82
2021/07/17 05:22:14;;;;;;;31.05;4.32;;;17.60;99.90;;;;;;4992409;28;20042;-82
2021/07/17 05:24:41;;;;;;;21.33;4.55;;;17.50;99.90;;;;;;4991363;28;20057;-82
2021/07/17 05:27:06;;;;;;;33.70;5.68;;;17.70;99.90;;;;;;4992682;28;20033;-84
2021/07/17 05:29:32;;;;;;;24.00;4.40;;;17.70;99.90;;;;;;5010518;28;20022;-81
2021/07/17 05:31:57;;;;;;;21.45;4.55;;;17.80;99.90;;;;;;5011829;28;20037;-82
2021/07/17 05:34:23;;;;;;;23.30;4.05;;;17.90;99.90;;;;;;5012112;28;20034;-81
2021/07/17 05:36:48;;;;;;;15.90;4.43;;;18.10;99.90;;;;;;5012168;28;20033;-83
2021/07/17 05:39:14;;;;;;;25.63;4.72;;;18.10;99.90;;;;;;5012069;28;20033;-82
2021/07/17 05:41:39;;;;;;;13.40;3.17;;;18.20;99.90;;;;;;5011874;28;20065;-82
2021/07/17 05:44:05;;;;;;;21.80;3.90;;;18.30;99.90;;;;;;5012011;28;20076;-83
2021/07/17 05:46:30;;;;;;;22.48;4.07;;;18.40;99.90;;;;;;5017637;28;20061;-81
2021/07/17 05:48:56;;;;;;;24.98;4.40;;;18.50;99.90;;;;;;5018554;28;20560;-81
2021/07/17 05:51:23;;;;;;;26.08;3.80;;;18.60;99.90;;;;;;5018372;28;20544;-83
2021/07/17 05:53:49;;;;;;;21.58;3.38;;;18.70;99.90;;;;;;5018500;28;20033;-83
2021/07/17 05:56:14;;;;;;;14.25;3.20;;;18.80;99.90;;;;;;5018441;28;20072;-82
2021/07/17 05:58:40;;;;;;;14.95;4.25;;;18.80;99.90;;;;;;5018348;28;20021;-82
2021/07/17 06:01:05;;;;;;;22.05;3.67;;;18.90;99.90;;;;;;5016491;28;20109;-83
2021/07/17 06:03:31;;;;;;;12.80;3.88;;;19.10;99.90;;;;;;5016625;28;20021;-82
2021/07/17 06:05:56;;;;;;;24.15;4.30;;;19.10;99.90;;;;;;5018104;28;20028;-82
2021/07/17 06:08:22;;;;;;;13.82;4.07;;;19.20;99.90;;;;;;5017909;28;20026;-82
2021/07/17 06:10:48;;;;;;;13.15;3.00;;;19.30;99.90;;;;;;5018019;28;20060;-81
2021/07/17 06:13:13;;;;;;;15.95;3.22;;;19.40;99.90;;;;;;5017920;28;20033;-81
2021/07/17 06:15:39;;;;;;;13.43;4.03;;;19.60;99.90;;;;;;5018062;28;20033;-81
2021/07/17 06:18:04;;;;;;;17.65;4.40;;;19.60;99.90;;;;;;5018151;28;20372;-82
2021/07/17 06:20:30;;;;;;;12.68;2.95;;;19.70;99.90;;;;;;5016833;28;20053;-81
2021/07/17 06:22:55;;;;;;;14.25;4.32;;;19.80;99.90;;;;;;5017875;28;20536;-83
2021/07/17 06:25:21;;;;;;;15.18;3.38;;;19.70;99.90;;;;;;5018022;28;20022;-81
2021/07/17 06:27:47;;;;;;;14.02;4.47;;;19.80;99.90;;;;;;5017990;28;20026;-81
2021/07/17 06:30:13;;;;;;;18.95;3.28;;;19.90;99.90;;;;;;5009564;28;20054;-81
2021/07/17 06:32:38;;;;;;;13.15;2.97;;;20.00;99.90;;;;;;5013269;28;20120;-82
2021/07/17 06:35:05;;;;;;;13.70;3.33;;;20.10;99.90;;;;;;4998521;28;20131;-81
2021/07/17 06:37:31;;;;;;;15.48;3.28;;;20.30;99.90;;;;;;4998363;28;20030;-81
2021/07/17 06:39:56;;;;;;;18.58;3.55;;;20.30;99.90;;;;;;4998300;28;20394;-81
2021/07/17 06:42:22;;;;;;;15.02;3.25;;;20.30;99.90;;;;;;4998181;28;20061;-79
2021/07/17 06:44:48;;;;;;;16.38;2.90;;;20.50;99.90;;;;;;4998166;28;20046;-82
2021/07/17 06:47:13;;;;;;;10.35;2.38;;;20.40;99.90;;;;;;4998244;28;20085;-80
2021/07/17 06:49:39;;;;;;;13.68;2.70;;;20.50;99.90;;;;;;4998346;28;20434;-80
2021/07/17 06:52:04;;;;;;;16.02;2.63;;;20.50;99.90;;;;;;4998042;28;20073;-80
2021/07/17 06:54:30;;;;;;;14.20;3.13;;;20.60;99.90;;;;;;4998315;28;20039;-80
2021/07/17 06:56:55;;;;;;;10.98;2.28;;;20.70;99.90;;;;;;4995543;28;20376;-82
2021/07/17 06:59:21;;;;;;;15.05;3.17;;;20.80;99.90;;;;;;4993819;28;20525;-82
2021/07/17 07:01:47;;;;;;;12.70;2.33;;;20.90;99.90;;;;;;4994889;28;20548;-79
2021/07/17 07:04:12;;;;;;;12.05;2.53;;;21.00;99.90;;;;;;4995123;28;20092;-80
2021/07/17 07:06:38;;;;;;;16.70;3.45;;;21.00;99.90;;;;;;4995037;28;20498;-81
2021/07/17 07:09:03;;;;;;;13.98;2.60;;;21.00;99.90;;;;;;4994944;28;20399;-81
2021/07/17 07:11:29;;;;;;;17.95;3.88;;;21.30;99.90;;;;;;4994752;28;20040;-81
2021/07/17 07:13:54;;;;;;;9.35;2.63;;;21.30;99.90;;;;;;4994860;28;20029;-79
2021/07/17 07:16:20;;;;;;;14.50;2.65;;;21.40;99.90;;;;;;4999727;28;20033;-80
2021/07/17 07:18:45;;;;;;;18.45;2.88;;;21.60;99.90;;;;;;5014265;28;20017;-80
2021/07/17 07:21:11;;;;;;;12.98;3.25;;;21.50;99.90;;;;;;5013334;28;20028;-80
2021/07/17 07:23:37;;;;;;;12.32;2.63;;;21.60;99.90;;;;;;5013734;28;20022;-81
2021/07/17 07:26:02;;;;;;;18.73;2.90;;;21.70;99.90;;;;;;5014085;28;20073;-82
2021/07/17 07:28:28;;;;;;;12.95;3.13;;;21.80;99.90;;;;;;5014261;28;20022;-85
2021/07/17 07:30:54;;;;;;;16.05;3.03;;;21.80;99.90;;;;;;4999953;28;20030;-82
2021/07/17 07:33:19;;;;;;;12.63;2.83;;;22.10;99.90;;;;;;4994590;28;20037;-82
2021/07/17 07:35:45;;;;;;;15.38;2.60;;;22.10;99.90;;;;;;4994414;28;20045;-80
2021/07/17 07:38:11;;;;;;;20.77;3.25;;;22.10;99.90;;;;;;4994490;28;20053;-80
2021/07/17 07:40:36;;;;;;;13.02;2.92;;;22.40;99.90;;;;;;4994313;28;20065;-80
2021/07/17 07:43:02;;;;;;;12.70;2.85;;;22.20;99.90;;;;;;4994848;28;20035;-78
2021/07/17 07:45:28;;;;;;;15.55;3.47;;;22.10;99.90;;;;;;4994204;28;20029;-81
2021/07/17 07:47:53;;;;;;;10.02;2.70;;;22.20;99.90;;;;;;5000028;28;20022;-84
2021/07/17 07:50:21;;;;;;;11.07;2.60;;;22.30;99.90;;;;;;5013801;28;20025;-81
2021/07/17 07:52:46;;;;;;;13.43;3.30;;;22.20;99.90;;;;;;5001307;28;20030;-77
2021/07/17 07:55:12;;;;;;;15.38;2.92;;;22.60;99.90;;;;;;5017912;28;20402;-79
2021/07/17 07:57:37;;;;;;;14.98;2.75;;;22.40;99.90;;;;;;5018156;28;20021;-80
2021/07/17 08:00:05;;;;;;;10.25;2.45;;;22.60;99.90;;;;;;5012147;28;20034;-82
2021/07/17 08:02:31;;;;;;;10.88;2.58;;;22.70;99.90;;;;;;5017538;28;20410;-80
2021/07/17 08:04:56;;;;;;;20.92;3.08;;;22.80;99.90;;;;;;5018804;28;20029;-80
2021/07/17 08:08:09;;;;;;;10.32;2.72;;;23.00;99.90;;;;;;5018967;28;20482;-80
2021/07/17 08:10:34;;;;;;;11.30;2.30;;;22.80;99.90;;;;;;5012640;28;20062;-78
2021/07/17 08:13:00;;;;;;;12.05;2.85;;;23.00;99.90;;;;;;5019309;28;20477;-81
2021/07/17 08:15:25;;;;;;;10.40;2.20;;;23.10;99.90;;;;;;5025001;28;20569;-80
2021/07/17 08:17:51;;;;;;;25.13;3.17;;;23.20;99.90;;;;;;5008225;28;20674;-80
2021/07/17 08:20:17;;;;;;;15.80;3.40;;;23.10;99.90;;;;;;5010453;28;20521;-79
2021/07/17 08:22:42;;;;;;;10.73;2.35;;;23.00;99.90;;;;;;5026382;28;20069;-79
2021/07/17 08:25:09;;;;;;;14.98;2.58;;;22.90;99.90;;;;;;5023484;28;20581;-78
2021/07/17 08:27:34;;;;;;;28.02;3.20;;;23.00;99.90;;;;;;5023276;28;20034;-78
2021/07/17 08:30:00;;;;;;;21.65;2.67;;;23.10;99.90;;;;;;5018250;28;20037;-78
2021/07/17 08:32:26;;;;;;;14.48;2.60;;;23.30;99.90;;;;;;5016849;28;20026;-78
2021/07/17 08:34:52;;;;;;;11.85;2.08;;;23.30;99.90;;;;;;5015474;28;20104;-79
2021/07/17 08:37:19;;;;;;;15.05;2.85;;;23.40;99.90;;;;;;5017182;28;20022;-78
2021/07/17 08:39:44;;;;;;;10.63;2.17;;;23.40;99.90;;;;;;5017053;28;20099;-78
2021/07/17 08:42:13;;;;;;;11.93;2.47;;;23.50;99.90;;;;;;5017549;28;20029;-80
2021/07/17 08:44:40;;;;;;;15.70;2.65;;;23.80;99.90;;;;;;5009383;28;20036;-79
2021/07/17 08:47:07;;;;;;;11.68;2.67;;;23.60;99.90;;;;;;5022921;28;20144;-77
2021/07/17 08:49:34;;;;;;;12.30;2.55;;;23.80;99.90;;;;;;5016966;28;20026;-79
2021/07/17 08:52:02;;;;;;;7.40;2.50;;;23.70;99.90;;;;;;5032041;28;20108;-79
2021/07/17 08:54:29;;;;;;;13.85;3.03;;;23.90;99.90;;;;;;5016718;28;20022;-81
2021/07/17 08:56:55;;;;;;;13.48;2.60;;;24.00;99.90;;;;;;5019003;28;20074;-78
2021/07/17 08:59:21;;;;;;;9.40;2.67;;;24.20;99.90;;;;;;5016562;28;20030;-81
2021/07/17 09:01:49;;;;;;;9.98;2.10;;;24.40;99.90;;;;;;5025191;28;20095;-78
2021/07/17 09:04:14;;;;;;;9.73;1.85;;;24.00;99.90;;;;;;5016250;28;20094;-80
2021/07/17 09:06:40;;;;;;;9.73;1.88;;;23.80;99.90;;;;;;5024437;28;20106;-80
2021/07/17 09:09:06;;;;;;;7.00;2.10;;;24.00;99.90;;;;;;5009757;28;20074;-79
2021/07/17 09:11:40;;;;;;;20.55;2.42;;;24.20;99.90;;;;;;5007849;28;20026;-79
2021/07/17 09:14:26;;;;;;;5.18;1.63;;;24.40;99.90;;;;;;5016112;28;20044;-77
2021/07/17 09:16:59;;;;;;;7.30;1.80;;;24.60;99.90;;;;;;5025665;28;20060;-78
2021/07/17 09:19:24;;;;;;;11.15;2.63;;;24.70;99.90;;;;;;5008693;28;20061;-80
2021/07/17 09:21:55;;;;;;;8.75;2.20;;;24.60;99.90;;;;;;5007530;28;20062;-78
2021/07/17 09:24:20;;;;;;;3.90;1.92;;;24.60;99.90;;;;;;5023859;28;20076;-78
2021/07/17 09:27:02;;;;;;;11.02;2.53;;;24.50;99.90;;;;;;5006484;28;20482;-80
2021/07/17 09:29:38;;;;;;;6.20;1.80;;;24.70;99.90;;;;;;5000363;28;20080;-79
2021/07/17 09:32:05;;;;;;;11.70;1.77;;;24.50;99.90;;;;;;5013082;28;20037;-78
2021/07/17 09:34:32;;;;;;;8.15;1.75;;;24.50;99.90;;;;;;5015717;28;20041;-79
2021/07/17 09:37:04;;;;;;;8.43;1.70;;;24.60;99.90;;;;;;5008572;28;20033;-80
2021/07/17 09:39:44;;;;;;;7.75;2.13;;;24.60;99.90;;;;;;5016488;28;20041;-79
2021/07/17 09:42:14;;;;;;;28.20;3.75;;;24.80;99.90;;;;;;5006893;28;20053;-79
2021/07/17 09:44:40;;;;;;;11.35;2.03;;;25.10;99.90;;;;;;5011721;28;20474;-77
2021/07/17 09:47:20;;;;;;;49.65;6.30;;;25.00;99.90;;;;;;5013639;28;20032;-80
2021/07/17 09:49:46;;;;;;;6.28;2.03;;;25.10;99.90;;;;;;5013870;28;20017;-78
2021/07/17 09:52:14;;;;;;;9.23;1.95;;;25.00;99.90;;;;;;5013609;28;20029;-79
2021/07/17 09:54:59;;;;;;;9.88;1.90;;;25.10;99.90;;;;;;5004044;28;20406;-78
2021/07/17 09:57:29;;;;;;;12.38;2.55;;;25.00;99.90;;;;;;5002313;28;20483;-79
2021/07/17 10:00:07;;;;;;;8.60;1.98;;;25.00;99.90;;;;;;5013598;28;20105;-78
2021/07/17 10:02:36;;;;;;;12.15;2.33;;;25.10;99.90;;;;;;5016021;28;20029;-78
2021/07/17 10:05:04;;;;;;;17.15;2.47;;;25.10;99.90;;;;;;5002998;28;20033;-78
2021/07/17 10:07:29;;;;;;;7.15;1.98;;;25.10;99.90;;;;;;5013198;28;20022;-78
2021/07/17 10:09:55;;;;;;;11.57;1.83;;;25.30;99.90;;;;;;5007408;28;20048;-78
2021/07/17 10:12:32;;;;;;;19.13;3.67;;;25.30;99.90;;;;;;5023796;28;20021;-80
2021/07/17 10:14:58;;;;;;;9.88;2.00;;;25.60;99.90;;;;;;5020959;28;20030;-79
2021/07/17 10:17:39;;;;;;;8.63;2.35;;;25.70;99.90;;;;;;5008672;28;20040;-79
2021/07/17 10:20:08;;;;;;;14.95;2.58;;;25.60;99.90;;;;;;5013829;28;20033;-79
2021/07/17 10:22:34;;;;;;;15.40;3.15;;;25.80;99.90;;;;;;5025140;28;20044;-80
2021/07/17 10:25:01;;;;;;;10.52;2.58;;;25.40;99.90;;;;;;5024687;28;20370;-79
2021/07/17 10:27:27;;;;;;;13.02;3.05;;;25.40;99.90;;;;;;5024999;28;20025;-80
2021/07/17 10:29:53;;;;;;;15.27;2.50;;;25.50;99.90;;;;;;5006980;28;20112;-83
2021/07/17 10:32:18;;;;;;;11.40;2.15;;;25.30;99.90;;;;;;5010267;28;20141;-78
2021/07/17 10:34:45;;;;;;;8.15;2.40;;;25.20;99.90;;;;;;5012731;28;20181;-80
2021/07/17 10:37:16;;;;;;;19.73;3.00;;;25.20;99.90;;;;;;5012095;28;20435;-82
2021/07/17 10:39:52;;;;;;;10.25;2.30;;;25.50;99.90;;;;;;5018999;28;20057;-79
2021/07/17 10:42:22;;;;;;;8.30;2.08;;;25.80;99.90;;;;;;5013202;28;20036;-79
2021/07/17 10:44:50;;;;;;;10.40;2.55;;;25.90;99.90;;;;;;5012673;28;20160;-79
2021/07/17 10:47:19;;;;;;;10.93;2.20;;;25.60;99.90;;;;;;5019282;28;20030;-78
2021/07/17 10:49:54;;;;;;;14.00;2.33;;;25.50;99.90;;;;;;5012015;28;20029;-80
2021/07/17 10:52:40;;;;;;;18.08;2.75;;;25.70;99.90;;;;;;5017459;28;20033;-79
2021/07/17 10:55:29;;;;;;;9.25;2.03;;;25.90;99.90;;;;;;5028271;28;20025;-80
2021/07/17 10:58:00;;;;;;;9.43;2.63;;;25.90;99.90;;;;;;5012671;28;20403;-79
2021/07/17 11:00:43;;;;;;;7.63;1.92;;;26.10;99.90;;;;;;5019335;28;20026;-79
2021/07/17 11:03:29;;;;;;;;;;;26.10;99.90;;;;;;5017804;28;20022;-79
2021/07/17 11:05:55;;;;;;;10.38;2.13;;;26.30;99.90;;;;;;5021608;28;19920;-79
2021/07/17 11:08:38;;;;;;;17.35;2.40;;;26.70;99.90;;;;;;5026662;28;20467;-80
2021/07/17 11:11:31;;;;;;;8.68;2.05;;;26.60;99.90;;;;;;5014919;28;20025;-80
2021/07/17 11:14:17;;;;;;;13.95;2.60;;;26.30;99.90;;;;;;5021560;28;20049;-80
2021/07/17 11:16:47;;;;;;;20.38;2.38;;;26.10;99.90;;;;;;5000926;28;20070;-78
2021/07/17 11:19:16;;;;;;;9.38;1.77;;;26.00;99.90;;;;;;5029007;28;20113;-81
2021/07/17 11:21:43;;;;;;;17.35;2.72;;;25.90;99.90;;;;;;5029156;28;20025;-80
2021/07/17 11:24:10;;;;;;;7.25;1.90;;;25.70;99.90;;;;;;5010172;28;20022;-78
2021/07/17 11:26:36;;;;;;;13.32;2.58;;;25.80;99.90;;;;;;5019755;28;20029;-81
2021/07/17 11:29:06;;;;;;;16.33;2.55;;;25.70;99.90;;;;;;5019480;28;20026;-80
2021/07/17 11:31:33;;;;;;;12.95;2.30;;;25.80;99.90;;;;;;5019715;28;20523;-81
2021/07/17 11:34:14;;;;;;;13.18;2.85;;;25.80;99.90;;;;;;5028186;28;20029;-78
2021/07/17 11:36:42;;;;;;;9.10;2.00;;;25.80;99.90;;;;;;5011125;28;20034;-80
2021/07/17 11:39:09;;;;;;;9.82;1.92;;;26.00;99.90;;;;;;5017666;28;20117;-80
2021/07/17 11:41:35;;;;;;;10.98;2.75;;;26.40;99.90;;;;;;5022647;28;20382;-79
2021/07/17 11:44:01;;;;;;;12.82;2.30;;;26.60;99.90;;;;;;5033121;28;20040;-80
2021/07/17 11:46:27;;;;;;;9.60;2.33;;;26.80;99.90;;;;;;5034014;28;20071;-79
2021/07/17 11:49:01;;;;;;;10.15;2.13;;;26.80;99.90;;;;;;5033477;28;20022;-80
2021/07/17 11:51:27;;;;;;;12.43;1.75;;;27.00;99.90;;;;;;5033380;28;20028;-79
2021/07/17 11:54:00;;;;;;;10.80;2.38;;;26.80;99.90;;;;;;5033579;28;20494;-79
2021/07/17 11:56:26;;;;;;;24.40;3.70;;;26.90;99.90;;;;;;5033531;28;20025;-79
2021/07/17 11:59:12;;;;;;;8.48;1.90;;;26.70;99.90;;;;;;5033504;28;20036;-79
2021/07/17 12:01:37;;;;;;;18.40;2.22;;;26.80;99.90;;;;;;5033082;28;20028;-78
2021/07/17 12:04:03;;;;;;;10.63;2.22;;;26.80;99.90;;;;;;5032130;28;20119;-79
2021/07/17 12:06:29;;;;;;;15.85;2.17;;;27.20;99.90;;;;;;5033560;28;20025;-78
2021/07/17 12:08:54;;;;;;;12.27;2.38;;;26.80;99.90;;;;;;5033304;28;20394;-79
2021/07/17 12:11:20;;;;;;;8.52;2.25;;;27.00;99.90;;;;;;5023577;28;20053;-79
2021/07/17 12:13:46;;;;;;;16.42;2.95;;;27.10;99.90;;;;;;5012174;28;20390;-80
2021/07/17 12:16:21;;;;;;;11.27;2.20;;;27.20;99.90;;;;;;5013199;28;20494;-80
2021/07/17 12:18:58;;;;;;;10.32;1.85;;;27.20;99.90;;;;;;5013188;28;20034;-80
2021/07/17 12:21:23;;;;;;;11.32;3.13;;;27.30;99.90;;;;;;5013025;28;20490;-79
2021/07/17 12:23:58;;;;;;;11.18;2.00;;;27.00;99.90;;;;;;5013031;28;20030;-78
2021/07/17 12:26:24;;;;;;;10.60;3.03;;;27.20;99.90;;;;;;5011889;28;20018;-78
2021/07/17 12:28:54;;;;;;;6.57;1.67;;;27.10;99.90;;;;;;5013062;28;20033;-78
2021/07/17 12:31:20;;;;;;;12.32;1.80;;;27.30;99.90;;;;;;5012824;28;20095;-79
2021/07/17 12:33:47;;;;;;;15.48;2.17;;;27.20;99.90;;;;;;5013013;28;20108;-78
2021/07/17 12:36:17;;;;;;;7.63;1.92;;;27.10;99.90;;;;;;5013012;28;20093;-80
2021/07/17 12:38:50;;;;;;;10.05;2.05;;;27.40;99.90;;;;;;5019884;28;20026;-80